sensor_id;sensor_type;location;lat;lon;timestamp;P1;durP1;ratioP1;P2;durP2;ratioP2
19969;SDS011;10146;47.754;9.566;2023-07-13T00:01:13;7.25;;;5.65;;
19969;SDS011;10146;47.754;9.566;2023-07-13T00:03:39;7.30;;;6.03;;
19969;SDS011;10146;47.754;9.566;2023-07-13T00:06:06;7.18;;;5.95;;
19969;SDS011;10146;47.754;9.566;2023-07-13T00:08:32;7.28;;;5.90;;
19969;SDS011;10146;47.754;9.566;2023-07-13T00:11:00;6.50;;;5.93;;
19969;SDS011;10146;47.754;9.566;2023-07-13T00:13:26;5.97;;;5.47;;
19969;SDS011;10146;47.754;9.566;2023-07-13T00:15:52;6.03;;;5.43;;
19969;SDS011;10146;47.754;9.566;2023-07-13T00:18:19;6.93;;;6.25;;
19969;SDS011;10146;47.754;9.566;2023-07-13T00:20:45;9.32;;;6.00;;
19969;SDS011;10146;47.754;9.566;2023-07-13T00:23:11;6.72;;;6.07;;
19969;SDS011;10146;47.754;9.566;2023-07-13T00:25:36;7.78;;;5.88;;
19969;SDS011;10146;47.754;9.566;2023-07-13T00:28:02;5.78;;;5.07;;
19969;SDS011;10146;47.754;9.566;2023-07-13T00:30:28;6.80;;;5.25;;
19969;SDS011;10146;47.754;9.566;2023-07-13T00:32:54;6.18;;;5.38;;
19969;SDS011;10146;47.754;9.566;2023-07-13T00:35:19;6.82;;;5.57;;
19969;SDS011;10146;47.754;9.566;2023-07-13T00:37:45;9.48;;;5.28;;
19969;SDS011;10146;47.754;9.566;2023-07-13T00:40:11;6.93;;;5.53;;
19969;SDS011;10146;47.754;9.566;2023-07-13T00:42:38;5.38;;;4.35;;
19969;SDS011;10146;47.754;9.566;2023-07-13T00:47:33;5.97;;;5.28;;
19969;SDS011;10146;47.754;9.566;2023-07-13T00:49:58;6.07;;;5.22;;
19969;SDS011;10146;47.754;9.566;2023-07-13T00:52:25;9.05;;;5.47;;
19969;SDS011;10146;47.754;9.566;2023-07-13T00:54:51;7.65;;;5.20;;
19969;SDS011;10146;47.754;9.566;2023-07-13T00:57:17;6.07;;;5.30;;
19969;SDS011;10146;47.754;9.566;2023-07-13T00:59:46;7.20;;;5.65;;
19969;SDS011;10146;47.754;9.566;2023-07-13T01:02:15;6.82;;;5.38;;
19969;SDS011;10146;47.754;9.566;2023-07-13T01:04:41;8.80;;;5.18;;
19969;SDS011;10146;47.754;9.566;2023-07-13T01:07:09;6.50;;;5.88;;
19969;SDS011;10146;47.754;9.566;2023-07-13T01:09:36;5.45;;;4.95;;
19969;SDS011;10146;47.754;9.566;2023-07-13T01:12:02;5.78;;;5.20;;
19969;SDS011;10146;47.754;9.566;2023-07-13T01:14:28;9.70;;;5.80;;
19969;SDS011;10146;47.754;9.566;2023-07-13T01:16:54;8.45;;;5.45;;
19969;SDS011;10146;47.754;9.566;2023-07-13T01:19:37;8.43;;;5.10;;
19969;SDS011;10146;47.754;9.566;2023-07-13T01:22:05;7.40;;;5.32;;
19969;SDS011;10146;47.754;9.566;2023-07-13T01:24:34;7.20;;;5.47;;
19969;SDS011;10146;47.754;9.566;2023-07-13T01:27:01;7.85;;;5.90;;
19969;SDS011;10146;47.754;9.566;2023-07-13T01:29:27;5.00;;;4.53;;
19969;SDS011;10146;47.754;9.566;2023-07-13T01:31:53;6.40;;;4.95;;
19969;SDS011;10146;47.754;9.566;2023-07-13T01:34:18;7.78;;;5.10;;
19969;SDS011;10146;47.754;9.566;2023-07-13T01:36:44;6.00;;;4.70;;
19969;SDS011;10146;47.754;9.566;2023-07-13T01:39:09;5.60;;;4.75;;
19969;SDS011;10146;47.754;9.566;2023-07-13T01:41:35;8.48;;;5.07;;
19969;SDS011;10146;47.754;9.566;2023-07-13T01:44:01;6.22;;;5.30;;
19969;SDS011;10146;47.754;9.566;2023-07-13T01:46:26;5.28;;;4.80;;
19969;SDS011;10146;47.754;9.566;2023-07-13T01:48:52;7.07;;;5.72;;
19969;SDS011;10146;47.754;9.566;2023-07-13T01:51:18;6.50;;;5.82;;
19969;SDS011;10146;47.754;9.566;2023-07-13T01:53:44;6.82;;;6.18;;
19969;SDS011;10146;47.754;9.566;2023-07-13T01:56:10;7.20;;;5.82;;
19969;SDS011;10146;47.754;9.566;2023-07-13T01:58:35;7.07;;;6.10;;
19969;SDS011;10146;47.754;9.566;2023-07-13T02:01:01;6.53;;;5.47;;
19969;SDS011;10146;47.754;9.566;2023-07-13T02:03:26;6.25;;;5.43;;
19969;SDS011;10146;47.754;9.566;2023-07-13T02:05:52;8.68;;;5.50;;
19969;SDS011;10146;47.754;9.566;2023-07-13T02:08:17;6.05;;;4.78;;
19969;SDS011;10146;47.754;9.566;2023-07-13T02:10:43;6.38;;;5.40;;
19969;SDS011;10146;47.754;9.566;2023-07-13T02:13:09;5.38;;;4.88;;
19969;SDS011;10146;47.754;9.566;2023-07-13T02:15:37;6.28;;;5.10;;
19969;SDS011;10146;47.754;9.566;2023-07-13T02:18:04;5.15;;;4.60;;
19969;SDS011;10146;47.754;9.566;2023-07-13T02:20:29;5.93;;;5.10;;
19969;SDS011;10146;47.754;9.566;2023-07-13T02:22:55;6.22;;;5.63;;
19969;SDS011;10146;47.754;9.566;2023-07-13T02:25:21;6.20;;;5.60;;
19969;SDS011;10146;47.754;9.566;2023-07-13T02:27:46;7.90;;;6.32;;
19969;SDS011;10146;47.754;9.566;2023-07-13T02:30:12;6.32;;;5.72;;
19969;SDS011;10146;47.754;9.566;2023-07-13T02:32:40;7.75;;;5.93;;
19969;SDS011;10146;47.754;9.566;2023-07-13T02:35:05;7.75;;;6.03;;
19969;SDS011;10146;47.754;9.566;2023-07-13T02:37:31;10.98;;;5.85;;
19969;SDS011;10146;47.754;9.566;2023-07-13T02:39:57;6.10;;;5.53;;
19969;SDS011;10146;47.754;9.566;2023-07-13T02:42:22;6.28;;;5.68;;
19969;SDS011;10146;47.754;9.566;2023-07-13T02:44:48;6.40;;;5.75;;
19969;SDS011;10146;47.754;9.566;2023-07-13T02:47:15;7.78;;;5.47;;
19969;SDS011;10146;47.754;9.566;2023-07-13T02:49:41;6.60;;;5.57;;
19969;SDS011;10146;47.754;9.566;2023-07-13T02:52:07;6.10;;;5.50;;
19969;SDS011;10146;47.754;9.566;2023-07-13T02:54:32;7.57;;;5.43;;
19969;SDS011;10146;47.754;9.566;2023-07-13T02:56:58;6.45;;;5.50;;
19969;SDS011;10146;47.754;9.566;2023-07-13T02:59:24;6.47;;;5.10;;
19969;SDS011;10146;47.754;9.566;2023-07-13T03:01:49;7.15;;;5.72;;
19969;SDS011;10146;47.754;9.566;2023-07-13T03:04:15;7.97;;;5.90;;
19969;SDS011;10146;47.754;9.566;2023-07-13T03:06:44;6.50;;;5.53;;
19969;SDS011;10146;47.754;9.566;2023-07-13T03:09:10;7.75;;;5.40;;
19969;SDS011;10146;47.754;9.566;2023-07-13T03:11:37;8.45;;;6.38;;
19969;SDS011;10146;47.754;9.566;2023-07-13T03:14:03;5.95;;;5.45;;
19969;SDS011;10146;47.754;9.566;2023-07-13T03:16:29;5.97;;;5.38;;
19969;SDS011;10146;47.754;9.566;2023-07-13T03:18:54;7.43;;;6.72;;
19969;SDS011;10146;47.754;9.566;2023-07-13T03:21:20;8.95;;;8.07;;
19969;SDS011;10146;47.754;9.566;2023-07-13T03:23:46;6.75;;;5.30;;
19969;SDS011;10146;47.754;9.566;2023-07-13T03:26:13;7.30;;;5.70;;
19969;SDS011;10146;47.754;9.566;2023-07-13T03:28:41;9.13;;;5.93;;
19969;SDS011;10146;47.754;9.566;2023-07-13T03:31:11;8.20;;;5.97;;
19969;SDS011;10146;47.754;9.566;2023-07-13T03:33:39;6.18;;;5.60;;
19969;SDS011;10146;47.754;9.566;2023-07-13T03:36:05;7.43;;;5.78;;
19969;SDS011;10146;47.754;9.566;2023-07-13T03:38:33;7.55;;;6.15;;
19969;SDS011;10146;47.754;9.566;2023-07-13T03:40:59;6.80;;;5.30;;
19969;SDS011;10146;47.754;9.566;2023-07-13T03:43:25;5.50;;;5.00;;
19969;SDS011;10146;47.754;9.566;2023-07-13T03:45:50;5.80;;;5.25;;
19969;SDS011;10146;47.754;9.566;2023-07-13T03:48:16;5.55;;;5.00;;
19969;SDS011;10146;47.754;9.566;2023-07-13T03:50:41;6.50;;;5.10;;
19969;SDS011;10146;47.754;9.566;2023-07-13T03:53:07;7.55;;;5.30;;
19969;SDS011;10146;47.754;9.566;2023-07-13T03:55:33;6.57;;;5.18;;
19969;SDS011;10146;47.754;9.566;2023-07-13T03:58:00;6.75;;;5.30;;
19969;SDS011;10146;47.754;9.566;2023-07-13T04:00:46;6.03;;;5.25;;
19969;SDS011;10146;47.754;9.566;2023-07-13T04:03:12;6.15;;;5.55;;
19969;SDS011;10146;47.754;9.566;2023-07-13T04:05:38;5.90;;;5.40;;
19969;SDS011;10146;47.754;9.566;2023-07-13T04:08:05;7.38;;;6.13;;
19969;SDS011;10146;47.754;9.566;2023-07-13T04:10:31;6.47;;;5.55;;
19969;SDS011;10146;47.754;9.566;2023-07-13T04:12:56;8.43;;;5.90;;
19969;SDS011;10146;47.754;9.566;2023-07-13T04:15:22;7.15;;;5.78;;
19969;SDS011;10146;47.754;9.566;2023-07-13T04:17:47;6.47;;;5.75;;
19969;SDS011;10146;47.754;9.566;2023-07-13T04:20:13;6.15;;;5.28;;
19969;SDS011;10146;47.754;9.566;2023-07-13T04:22:39;5.82;;;5.30;;
19969;SDS011;10146;47.754;9.566;2023-07-13T04:25:04;6.05;;;5.53;;
19969;SDS011;10146;47.754;9.566;2023-07-13T04:27:30;6.75;;;6.15;;
19969;SDS011;10146;47.754;9.566;2023-07-13T04:29:56;7.10;;;5.80;;
19969;SDS011;10146;47.754;9.566;2023-07-13T04:32:21;7.22;;;5.68;;
19969;SDS011;10146;47.754;9.566;2023-07-13T04:34:47;6.72;;;5.95;;
19969;SDS011;10146;47.754;9.566;2023-07-13T04:37:17;7.15;;;5.85;;
19969;SDS011;10146;47.754;9.566;2023-07-13T04:39:42;6.53;;;5.57;;
19969;SDS011;10146;47.754;9.566;2023-07-13T04:42:08;6.82;;;6.15;;
19969;SDS011;10146;47.754;9.566;2023-07-13T04:44:34;6.95;;;6.25;;
19969;SDS011;10146;47.754;9.566;2023-07-13T04:46:59;7.53;;;5.85;;
19969;SDS011;10146;47.754;9.566;2023-07-13T04:49:25;7.55;;;6.75;;
19969;SDS011;10146;47.754;9.566;2023-07-13T04:51:50;7.65;;;6.70;;
19969;SDS011;10146;47.754;9.566;2023-07-13T04:54:16;7.50;;;6.68;;
19969;SDS011;10146;47.754;9.566;2023-07-13T04:56:42;9.10;;;6.38;;
19969;SDS011;10146;47.754;9.566;2023-07-13T04:59:07;8.02;;;5.78;;
19969;SDS011;10146;47.754;9.566;2023-07-13T05:01:33;6.70;;;6.10;;
19969;SDS011;10146;47.754;9.566;2023-07-13T05:03:59;6.47;;;5.88;;
19969;SDS011;10146;47.754;9.566;2023-07-13T05:06:24;6.90;;;6.28;;
19969;SDS011;10146;47.754;9.566;2023-07-13T05:08:50;6.95;;;6.25;;
19969;SDS011;10146;47.754;9.566;2023-07-13T05:11:17;11.43;;;6.85;;
19969;SDS011;10146;47.754;9.566;2023-07-13T05:13:43;7.00;;;6.40;;
19969;SDS011;10146;47.754;9.566;2023-07-13T05:16:08;8.45;;;6.82;;
19969;SDS011;10146;47.754;9.566;2023-07-13T05:18:34;6.78;;;6.07;;
19969;SDS011;10146;47.754;9.566;2023-07-13T05:21:03;8.05;;;6.20;;
19969;SDS011;10146;47.754;9.566;2023-07-13T05:23:33;6.50;;;5.90;;
19969;SDS011;10146;47.754;9.566;2023-07-13T05:26:00;6.90;;;6.00;;
19969;SDS011;10146;47.754;9.566;2023-07-13T05:28:26;7.28;;;6.22;;
19969;SDS011;10146;47.754;9.566;2023-07-13T05:30:53;6.93;;;5.95;;
19969;SDS011;10146;47.754;9.566;2023-07-13T05:33:19;7.22;;;5.80;;
19969;SDS011;10146;47.754;9.566;2023-07-13T05:35:45;6.82;;;5.68;;
19969;SDS011;10146;47.754;9.566;2023-07-13T05:38:11;6.68;;;6.00;;
19969;SDS011;10146;47.754;9.566;2023-07-13T05:40:37;8.02;;;6.15;;
19969;SDS011;10146;47.754;9.566;2023-07-13T05:43:03;7.55;;;5.53;;
19969;SDS011;10146;47.754;9.566;2023-07-13T05:45:29;7.32;;;6.05;;
19969;SDS011;10146;47.754;9.566;2023-07-13T05:47:54;7.00;;;5.88;;
19969;SDS011;10146;47.754;9.566;2023-07-13T05:50:20;6.10;;;5.53;;
19969;SDS011;10146;47.754;9.566;2023-07-13T05:52:46;8.52;;;6.30;;
19969;SDS011;10146;47.754;9.566;2023-07-13T05:55:12;7.22;;;6.10;;
19969;SDS011;10146;47.754;9.566;2023-07-13T05:57:38;6.25;;;5.65;;
19969;SDS011;10146;47.754;9.566;2023-07-13T06:00:03;6.88;;;6.13;;
19969;SDS011;10146;47.754;9.566;2023-07-13T06:02:29;6.03;;;5.35;;
19969;SDS011;10146;47.754;9.566;2023-07-13T06:04:55;6.38;;;5.60;;
19969;SDS011;10146;47.754;9.566;2023-07-13T06:07:21;5.85;;;5.25;;
19969;SDS011;10146;47.754;9.566;2023-07-13T06:09:46;6.78;;;5.78;;
19969;SDS011;10146;47.754;9.566;2023-07-13T06:12:12;6.15;;;5.55;;
19969;SDS011;10146;47.754;9.566;2023-07-13T06:14:37;6.20;;;5.60;;
19969;SDS011;10146;47.754;9.566;2023-07-13T06:17:03;7.57;;;6.00;;
19969;SDS011;10146;47.754;9.566;2023-07-13T06:19:29;6.57;;;5.88;;
19969;SDS011;10146;47.754;9.566;2023-07-13T06:21:55;5.68;;;5.07;;
19969;SDS011;10146;47.754;9.566;2023-07-13T06:24:20;6.35;;;5.68;;
19969;SDS011;10146;47.754;9.566;2023-07-13T06:26:46;7.55;;;5.72;;
19969;SDS011;10146;47.754;9.566;2023-07-13T06:29:12;6.72;;;5.75;;
19969;SDS011;10146;47.754;9.566;2023-07-13T06:31:38;7.95;;;5.90;;
19969;SDS011;10146;47.754;9.566;2023-07-13T06:34:03;6.85;;;5.82;;
19969;SDS011;10146;47.754;9.566;2023-07-13T06:36:29;8.15;;;5.63;;
19969;SDS011;10146;47.754;9.566;2023-07-13T06:38:54;8.65;;;7.15;;
19969;SDS011;10146;47.754;9.566;2023-07-13T06:41:20;8.02;;;6.47;;
19969;SDS011;10146;47.754;9.566;2023-07-13T06:43:47;10.25;;;9.02;;
19969;SDS011;10146;47.754;9.566;2023-07-13T06:46:12;9.20;;;6.68;;
19969;SDS011;10146;47.754;9.566;2023-07-13T06:48:38;8.82;;;6.55;;
19969;SDS011;10146;47.754;9.566;2023-07-13T06:51:04;9.43;;;6.30;;
19969;SDS011;10146;47.754;9.566;2023-07-13T06:53:29;6.30;;;5.72;;
19969;SDS011;10146;47.754;9.566;2023-07-13T06:55:55;8.45;;;6.20;;
19969;SDS011;10146;47.754;9.566;2023-07-13T06:58:20;6.05;;;5.07;;
19969;SDS011;10146;47.754;9.566;2023-07-13T07:00:49;5.43;;;4.93;;
19969;SDS011;10146;47.754;9.566;2023-07-13T07:03:16;7.78;;;5.65;;
19969;SDS011;10146;47.754;9.566;2023-07-13T07:05:42;5.43;;;4.93;;
19969;SDS011;10146;47.754;9.566;2023-07-13T07:08:08;8.45;;;5.25;;
19969;SDS011;10146;47.754;9.566;2023-07-13T07:10:34;5.68;;;5.05;;
19969;SDS011;10146;47.754;9.566;2023-07-13T07:13:00;9.73;;;6.25;;
19969;SDS011;10146;47.754;9.566;2023-07-13T07:15:26;5.65;;;5.15;;
19969;SDS011;10146;47.754;9.566;2023-07-13T07:17:52;6.20;;;4.93;;
19969;SDS011;10146;47.754;9.566;2023-07-13T07:20:17;6.47;;;5.30;;
19969;SDS011;10146;47.754;9.566;2023-07-13T07:22:43;7.00;;;5.72;;
19969;SDS011;10146;47.754;9.566;2023-07-13T07:25:09;7.70;;;6.00;;
19969;SDS011;10146;47.754;9.566;2023-07-13T07:27:34;6.10;;;5.50;;
19969;SDS011;10146;47.754;9.566;2023-07-13T07:30:00;6.45;;;5.72;;
19969;SDS011;10146;47.754;9.566;2023-07-13T07:32:25;6.15;;;5.55;;
19969;SDS011;10146;47.754;9.566;2023-07-13T07:34:51;8.73;;;5.78;;
19969;SDS011;10146;47.754;9.566;2023-07-13T07:37:17;6.65;;;5.40;;
19969;SDS011;10146;47.754;9.566;2023-07-13T07:39:43;8.85;;;5.20;;
19969;SDS011;10146;47.754;9.566;2023-07-13T07:42:09;7.28;;;5.60;;
19969;SDS011;10146;47.754;9.566;2023-07-13T07:44:35;6.25;;;4.65;;
19969;SDS011;10146;47.754;9.566;2023-07-13T07:47:01;5.13;;;4.63;;
19969;SDS011;10146;47.754;9.566;2023-07-13T07:49:27;6.55;;;4.60;;
19969;SDS011;10146;47.754;9.566;2023-07-13T07:51:52;4.93;;;4.32;;
19969;SDS011;10146;47.754;9.566;2023-07-13T07:54:18;7.05;;;4.00;;
19969;SDS011;10146;47.754;9.566;2023-07-13T07:56:44;5.32;;;3.17;;
19969;SDS011;10146;47.754;9.566;2023-07-13T07:59:09;6.45;;;3.38;;
19969;SDS011;10146;47.754;9.566;2023-07-13T08:01:35;4.43;;;3.42;;
19969;SDS011;10146;47.754;9.566;2023-07-13T08:04:01;5.65;;;3.25;;
19969;SDS011;10146;47.754;9.566;2023-07-13T08:06:27;5.70;;;3.33;;
19969;SDS011;10146;47.754;9.566;2023-07-13T08:08:54;5.28;;;3.88;;
19969;SDS011;10146;47.754;9.566;2023-07-13T08:11:20;6.32;;;3.40;;
19969;SDS011;10146;47.754;9.566;2023-07-13T08:13:46;5.95;;;3.20;;
19969;SDS011;10146;47.754;9.566;2023-07-13T08:16:12;7.32;;;3.40;;
19969;SDS011;10146;47.754;9.566;2023-07-13T08:18:38;5.82;;;3.65;;
19969;SDS011;10146;47.754;9.566;2023-07-13T08:21:04;6.00;;;3.58;;
19969;SDS011;10146;47.754;9.566;2023-07-13T08:23:30;6.47;;;3.88;;
19969;SDS011;10146;47.754;9.566;2023-07-13T08:25:57;5.13;;;3.17;;
19969;SDS011;10146;47.754;9.566;2023-07-13T08:28:23;4.80;;;3.03;;
19969;SDS011;10146;47.754;9.566;2023-07-13T08:30:48;5.45;;;3.35;;
19969;SDS011;10146;47.754;9.566;2023-07-13T08:33:18;6.18;;;3.42;;
19969;SDS011;10146;47.754;9.566;2023-07-13T08:35:47;5.65;;;2.67;;
19969;SDS011;10146;47.754;9.566;2023-07-13T08:38:13;5.40;;;3.03;;
19969;SDS011;10146;47.754;9.566;2023-07-13T08:40:40;5.03;;;3.13;;
19969;SDS011;10146;47.754;9.566;2023-07-13T08:43:08;5.00;;;3.30;;
19969;SDS011;10146;47.754;9.566;2023-07-13T08:45:50;4.90;;;2.65;;
19969;SDS011;10146;47.754;9.566;2023-07-13T08:48:44;6.20;;;2.92;;
19969;SDS011;10146;47.754;9.566;2023-07-13T08:53:59;5.07;;;3.10;;
19969;SDS011;10146;47.754;9.566;2023-07-13T08:56:28;5.05;;;3.58;;
19969;SDS011;10146;47.754;9.566;2023-07-13T08:58:58;7.25;;;3.60;;
19969;SDS011;10146;47.754;9.566;2023-07-13T09:01:44;3.70;;;3.38;;
19969;SDS011;10146;47.754;9.566;2023-07-13T09:04:18;4.03;;;2.97;;
19969;SDS011;10146;47.754;9.566;2023-07-13T09:09:26;3.75;;;2.95;;
19969;SDS011;10146;47.754;9.566;2023-07-13T09:12:17;6.07;;;2.80;;
19969;SDS011;10146;47.754;9.566;2023-07-13T09:15:05;7.28;;;3.20;;
19969;SDS011;10146;47.754;9.566;2023-07-13T09:17:50;3.70;;;2.60;;
19969;SDS011;10146;47.754;9.566;2023-07-13T09:20:25;5.32;;;2.70;;
19969;SDS011;10146;47.754;9.566;2023-07-13T09:22:55;6.47;;;2.60;;
19969;SDS011;10146;47.754;9.566;2023-07-13T09:27:56;6.97;;;3.50;;
19969;SDS011;10146;47.754;9.566;2023-07-13T09:30:33;6.65;;;3.40;;
19969;SDS011;10146;47.754;9.566;2023-07-13T09:33:09;6.25;;;3.20;;
19969;SDS011;10146;47.754;9.566;2023-07-13T09:35:35;6.25;;;3.45;;
19969;SDS011;10146;47.754;9.566;2023-07-13T09:43:15;5.47;;;3.40;;
19969;SDS011;10146;47.754;9.566;2023-07-13T09:45:41;6.55;;;3.50;;
19969;SDS011;10146;47.754;9.566;2023-07-13T09:48:12;5.47;;;3.00;;
19969;SDS011;10146;47.754;9.566;2023-07-13T09:50:39;4.03;;;3.35;;
19969;SDS011;10146;47.754;9.566;2023-07-13T09:53:11;5.07;;;3.05;;
19969;SDS011;10146;47.754;9.566;2023-07-13T09:55:38;6.07;;;3.60;;
19969;SDS011;10146;47.754;9.566;2023-07-13T10:00:36;4.18;;;2.72;;
19969;SDS011;10146;47.754;9.566;2023-07-13T10:05:50;7.22;;;2.80;;
19969;SDS011;10146;47.754;9.566;2023-07-13T10:08:21;6.93;;;2.80;;
19969;SDS011;10146;47.754;9.566;2023-07-13T10:10:53;6.20;;;2.65;;
19969;SDS011;10146;47.754;9.566;2023-07-13T10:13:24;4.38;;;2.60;;
19969;SDS011;10146;47.754;9.566;2023-07-13T10:15:52;5.38;;;2.70;;
19969;SDS011;10146;47.754;9.566;2023-07-13T10:18:19;3.85;;;2.78;;
19969;SDS011;10146;47.754;9.566;2023-07-13T10:20:45;4.85;;;2.10;;
19969;SDS011;10146;47.754;9.566;2023-07-13T10:23:13;5.55;;;2.78;;
19969;SDS011;10146;47.754;9.566;2023-07-13T10:25:48;3.47;;;2.30;;
19969;SDS011;10146;47.754;9.566;2023-07-13T10:30:50;4.65;;;2.65;;
19969;SDS011;10146;47.754;9.566;2023-07-13T10:33:18;5.03;;;2.10;;
19969;SDS011;10146;47.754;9.566;2023-07-13T10:35:45;3.38;;;2.40;;
19969;SDS011;10146;47.754;9.566;2023-07-13T10:38:14;5.43;;;2.42;;
19969;SDS011;10146;47.754;9.566;2023-07-13T10:43:26;5.18;;;2.33;;
19969;SDS011;10146;47.754;9.566;2023-07-13T10:45:55;6.60;;;2.10;;
19969;SDS011;10146;47.754;9.566;2023-07-13T10:48:21;2.92;;;1.90;;
19969;SDS011;10146;47.754;9.566;2023-07-13T10:50:49;3.03;;;2.00;;
19969;SDS011;10146;47.754;9.566;2023-07-13T10:58:19;6.07;;;2.40;;
19969;SDS011;10146;47.754;9.566;2023-07-13T11:00:56;3.70;;;2.17;;
19969;SDS011;10146;47.754;9.566;2023-07-13T11:03:23;5.18;;;2.17;;
19969;SDS011;10146;47.754;9.566;2023-07-13T11:06:03;3.40;;;2.60;;
19969;SDS011;10146;47.754;9.566;2023-07-13T11:08:36;3.70;;;2.10;;
19969;SDS011;10146;47.754;9.566;2023-07-13T11:11:04;2.88;;;2.10;;
19969;SDS011;10146;47.754;9.566;2023-07-13T11:18:53;6.13;;;2.75;;
19969;SDS011;10146;47.754;9.566;2023-07-13T11:22:10;2.67;;;1.90;;
19969;SDS011;10146;47.754;9.566;2023-07-13T11:27:42;3.13;;;2.15;;
19969;SDS011;10146;47.754;9.566;2023-07-13T11:35:33;3.85;;;2.25;;
19969;SDS011;10146;47.754;9.566;2023-07-13T11:38:02;5.40;;;2.30;;
19969;SDS011;10146;47.754;9.566;2023-07-13T11:40:34;5.38;;;1.80;;
19969;SDS011;10146;47.754;9.566;2023-07-13T11:43:00;4.65;;;1.90;;
19969;SDS011;10146;47.754;9.566;2023-07-13T11:45:26;2.70;;;2.08;;
19969;SDS011;10146;47.754;9.566;2023-07-13T11:47:53;3.80;;;2.03;;
19969;SDS011;10146;47.754;9.566;2023-07-13T11:50:22;2.35;;;1.90;;
19969;SDS011;10146;47.754;9.566;2023-07-13T11:52:49;5.03;;;2.65;;
19969;SDS011;10146;47.754;9.566;2023-07-13T11:55:18;7.20;;;2.75;;
19969;SDS011;10146;47.754;9.566;2023-07-13T11:57:51;3.40;;;2.40;;
19969;SDS011;10146;47.754;9.566;2023-07-13T12:00:22;4.47;;;2.60;;
19969;SDS011;10146;47.754;9.566;2023-07-13T12:02:52;4.55;;;2.13;;
19969;SDS011;10146;47.754;9.566;2023-07-13T12:05:20;6.18;;;2.67;;
19969;SDS011;10146;47.754;9.566;2023-07-13T12:07:46;5.35;;;2.72;;
19969;SDS011;10146;47.754;9.566;2023-07-13T12:12:55;2.55;;;2.30;;
19969;SDS011;10146;47.754;9.566;2023-07-13T12:15:23;5.07;;;2.15;;
19969;SDS011;10146;47.754;9.566;2023-07-13T12:17:54;4.05;;;2.00;;
19969;SDS011;10146;47.754;9.566;2023-07-13T12:20:23;3.25;;;2.20;;
19969;SDS011;10146;47.754;9.566;2023-07-13T12:22:51;3.47;;;1.95;;
19969;SDS011;10146;47.754;9.566;2023-07-13T12:25:17;3.38;;;2.10;;
19969;SDS011;10146;47.754;9.566;2023-07-13T12:27:48;3.53;;;2.03;;
19969;SDS011;10146;47.754;9.566;2023-07-13T12:30:28;2.88;;;2.22;;
19969;SDS011;10146;47.754;9.566;2023-07-13T12:32:57;3.10;;;2.50;;
19969;SDS011;10146;47.754;9.566;2023-07-13T12:35:38;2.47;;;1.90;;
19969;SDS011;10146;47.754;9.566;2023-07-13T12:38:11;3.13;;;2.05;;
19969;SDS011;10146;47.754;9.566;2023-07-13T12:40:37;3.58;;;2.10;;
19969;SDS011;10146;47.754;9.566;2023-07-13T12:43:05;5.85;;;2.03;;
19969;SDS011;10146;47.754;9.566;2023-07-13T12:45:37;2.08;;;1.95;;
19969;SDS011;10146;47.754;9.566;2023-07-13T12:48:05;2.90;;;2.08;;
19969;SDS011;10146;47.754;9.566;2023-07-13T12:50:39;2.65;;;2.30;;
19969;SDS011;10146;47.754;9.566;2023-07-13T12:53:09;3.45;;;2.35;;
19969;SDS011;10146;47.754;9.566;2023-07-13T12:55:49;2.95;;;2.17;;
19969;SDS011;10146;47.754;9.566;2023-07-13T12:58:21;2.88;;;2.15;;
19969;SDS011;10146;47.754;9.566;2023-07-13T13:00:57;5.72;;;2.33;;
19969;SDS011;10146;47.754;9.566;2023-07-13T13:03:30;4.35;;;2.28;;
19969;SDS011;10146;47.754;9.566;2023-07-13T13:06:02;3.00;;;2.47;;
19969;SDS011;10146;47.754;9.566;2023-07-13T13:08:36;2.30;;;2.10;;
19969;SDS011;10146;47.754;9.566;2023-07-13T13:11:02;2.20;;;1.83;;
19969;SDS011;10146;47.754;9.566;2023-07-13T13:13:28;6.20;;;2.45;;
19969;SDS011;10146;47.754;9.566;2023-07-13T13:15:54;4.22;;;1.77;;
19969;SDS011;10146;47.754;9.566;2023-07-13T13:18:20;4.00;;;1.73;;
19969;SDS011;10146;47.754;9.566;2023-07-13T13:20:49;5.68;;;1.98;;
19969;SDS011;10146;47.754;9.566;2023-07-13T13:23:16;2.63;;;1.90;;
19969;SDS011;10146;47.754;9.566;2023-07-13T13:25:45;5.25;;;1.75;;
19969;SDS011;10146;47.754;9.566;2023-07-13T13:28:16;2.65;;;1.80;;
19969;SDS011;10146;47.754;9.566;2023-07-13T13:30:44;2.95;;;1.90;;
19969;SDS011;10146;47.754;9.566;2023-07-13T13:33:12;2.22;;;1.67;;
19969;SDS011;10146;47.754;9.566;2023-07-13T13:35:40;2.70;;;1.85;;
19969;SDS011;10146;47.754;9.566;2023-07-13T13:38:26;2.88;;;1.58;;
19969;SDS011;10146;47.754;9.566;2023-07-13T13:40:52;3.88;;;1.65;;
19969;SDS011;10146;47.754;9.566;2023-07-13T13:43:21;3.05;;;1.90;;
19969;SDS011;10146;47.754;9.566;2023-07-13T13:45:52;2.53;;;1.80;;
19969;SDS011;10146;47.754;9.566;2023-07-13T13:48:32;2.03;;;1.45;;
19969;SDS011;10146;47.754;9.566;2023-07-13T13:50:59;1.70;;;1.50;;
19969;SDS011;10146;47.754;9.566;2023-07-13T13:53:29;1.80;;;1.70;;
19969;SDS011;10146;47.754;9.566;2023-07-13T13:55:54;2.25;;;1.33;;
19969;SDS011;10146;47.754;9.566;2023-07-13T13:58:20;2.55;;;1.73;;
19969;SDS011;10146;47.754;9.566;2023-07-13T14:00:46;1.80;;;1.70;;
19969;SDS011;10146;47.754;9.566;2023-07-13T14:03:22;3.55;;;1.63;;
19969;SDS011;10146;47.754;9.566;2023-07-13T14:05:48;1.77;;;1.35;;
19969;SDS011;10146;47.754;9.566;2023-07-13T14:08:20;2.22;;;1.30;;
19969;SDS011;10146;47.754;9.566;2023-07-13T14:10:48;3.28;;;1.50;;
19969;SDS011;10146;47.754;9.566;2023-07-13T14:13:27;2.15;;;1.52;;
19969;SDS011;10146;47.754;9.566;2023-07-13T14:15:55;2.17;;;1.50;;
19969;SDS011;10146;47.754;9.566;2023-07-13T14:18:21;2.97;;;1.67;;
19969;SDS011;10146;47.754;9.566;2023-07-13T14:20:47;2.88;;;1.70;;
19969;SDS011;10146;47.754;9.566;2023-07-13T14:23:16;2.90;;;2.00;;
19969;SDS011;10146;47.754;9.566;2023-07-13T14:25:43;2.00;;;1.55;;
19969;SDS011;10146;47.754;9.566;2023-07-13T14:30:48;4.05;;;1.60;;
19969;SDS011;10146;47.754;9.566;2023-07-13T14:33:15;1.90;;;1.80;;
19969;SDS011;10146;47.754;9.566;2023-07-13T14:35:40;3.10;;;1.70;;
19969;SDS011;10146;47.754;9.566;2023-07-13T14:38:08;2.30;;;1.88;;
19969;SDS011;10146;47.754;9.566;2023-07-13T14:40:37;1.80;;;1.70;;
19969;SDS011;10146;47.754;9.566;2023-07-13T14:43:04;1.52;;;1.42;;
19969;SDS011;10146;47.754;9.566;2023-07-13T14:45:29;2.15;;;1.92;;
19969;SDS011;10146;47.754;9.566;2023-07-13T14:47:56;2.13;;;1.85;;
19969;SDS011;10146;47.754;9.566;2023-07-13T14:50:31;4.85;;;1.50;;
19969;SDS011;10146;47.754;9.566;2023-07-13T14:52:58;2.63;;;1.50;;
19969;SDS011;10146;47.754;9.566;2023-07-13T14:55:23;3.63;;;1.73;;
19969;SDS011;10146;47.754;9.566;2023-07-13T14:57:51;3.13;;;1.73;;
19969;SDS011;10146;47.754;9.566;2023-07-13T15:00:18;1.95;;;1.60;;
19969;SDS011;10146;47.754;9.566;2023-07-13T15:02:52;5.28;;;2.35;;
19969;SDS011;10146;47.754;9.566;2023-07-13T15:05:21;2.60;;;1.65;;
19969;SDS011;10146;47.754;9.566;2023-07-13T15:07:49;1.58;;;1.48;;
19969;SDS011;10146;47.754;9.566;2023-07-13T15:10:17;2.58;;;1.55;;
19969;SDS011;10146;47.754;9.566;2023-07-13T15:12:47;3.13;;;2.08;;
19969;SDS011;10146;47.754;9.566;2023-07-13T15:15:16;1.60;;;1.50;;
19969;SDS011;10146;47.754;9.566;2023-07-13T15:17:42;1.77;;;1.65;;
19969;SDS011;10146;47.754;9.566;2023-07-13T15:20:31;3.58;;;1.83;;
19969;SDS011;10146;47.754;9.566;2023-07-13T15:23:00;2.60;;;1.67;;
19969;SDS011;10146;47.754;9.566;2023-07-13T15:25:27;1.92;;;1.77;;
19969;SDS011;10146;47.754;9.566;2023-07-13T15:27:55;2.30;;;1.58;;
19969;SDS011;10146;47.754;9.566;2023-07-13T15:30:22;1.98;;;1.65;;
19969;SDS011;10146;47.754;9.566;2023-07-13T15:33:06;2.03;;;1.58;;
19969;SDS011;10146;47.754;9.566;2023-07-13T15:35:47;1.70;;;1.60;;
19969;SDS011;10146;47.754;9.566;2023-07-13T15:38:18;2.30;;;1.70;;
19969;SDS011;10146;47.754;9.566;2023-07-13T15:40:47;1.52;;;1.42;;
19969;SDS011;10146;47.754;9.566;2023-07-13T15:43:13;2.17;;;1.65;;